Manitou Springs, Colorado
Current Conditions -  °F | °C
As of 6:56 AM on Tuesday 21 Oct 2014 (Local Time) from KCWN Reporting Station
Scattered Clouds Scattered Clouds  
Wind Chill: 13°   Ceiling: Unl
Heat Index: 13°   Visibility: 10mi
Dew Point:   Wind: 6mph
Humidity: 43%   Direction: 190°S
Pressure: 30.12"   Gusts: NA
Location:  38.86°N, 104.92°W
Report Text: KCWN 211256Z AUTO 19005KT 10SM SCT210 13/00 A3012 RMK AO2 SLPNO T01250003
Loading
Personal Weather Stations






























Interactive Weather Map New forecast layout! Learn more

10-Day Weather Forecast

Advertisements
Track Severe Weather on mobile